Time;durP1;ratioP1;P1;durP2;ratioP2;P2;SDS_P1;SDS_P2;PMS_P1;PMS_P2;Temp;Humidity;BMP_temperature;BMP_pressure;BME280_temperature;BME280_humidity;BME280_pressure;Samples;Min_cycle;Max_cycle;Signal;HPM_P1;HPM_P2
2022/06/06 00:00:48;;;;;;;3.90;2.10;;;;;;;16.96;81.42;98419.28;4189894;27;20036;-72
2022/06/06 00:02:49;;;;;;;2.30;2.08;;;;;;;16.94;81.40;98429.31;4186496;28;20135;-72
2022/06/06 00:04:49;;;;;;;2.60;2.20;;;;;;;16.92;81.75;98420.56;4188560;27;20107;-72
2022/06/06 00:06:54;;;;;;;2.38;1.90;;;;;;;16.91;81.57;98425.38;4190433;28;20396;-72
2022/06/06 00:08:55;;;;;;;2.70;2.30;;;;;;;16.87;82.00;98429.41;4183963;28;20036;-72
2022/06/06 00:10:56;;;;;;;3.10;2.42;;;;;;;16.85;81.95;98430.63;4184835;28;20366;-72
2022/06/06 00:12:57;;;;;;;4.70;2.38;;;;;;;16.82;81.96;98434.28;4189040;27;20554;-73
2022/06/06 00:14:58;;;;;;;3.05;2.30;;;;;;;16.76;82.20;98433.16;4185758;28;20041;-72
2022/06/06 00:16:58;;;;;;;3.38;1.90;;;;;;;16.71;82.32;98433.63;4184419;28;20048;-72
2022/06/06 00:18:59;;;;;;;4.45;1.88;;;;;;;16.65;82.65;98440.09;4185527;28;20039;-72
2022/06/06 00:20:59;;;;;;;3.33;2.13;;;;;;;16.62;82.88;98438.91;4191773;28;20377;-72
2022/06/06 00:23:00;;;;;;;2.65;2.30;;;;;;;16.58;83.01;98444.56;4185504;28;20357;-72
2022/06/06 00:25:00;;;;;;;4.53;2.33;;;;;;;16.58;83.50;98441.75;4185632;28;20476;-72
2022/06/06 00:27:01;;;;;;;3.85;2.42;;;;;;;16.56;83.55;98440.59;4190749;28;20076;-72
2022/06/06 00:29:03;;;;;;;2.30;2.10;;;;;;;16.52;83.79;98434.25;4188550;28;20040;-72
2022/06/06 00:35:42;;;;;;;2.58;2.22;;;;;;;16.47;83.33;98429.16;4186668;28;20376;-72
2022/06/06 00:37:43;;;;;;;2.40;2.20;;;;;;;16.46;83.75;98430.34;4190475;27;20076;-72
2022/06/06 00:39:45;;;;;;;3.65;2.25;;;;;;;16.39;84.00;98422.09;4187982;28;20119;-72
2022/06/06 00:41:49;;;;;;;2.25;2.05;;;;;;;16.36;84.03;98423.69;4188599;28;20049;-72
2022/06/06 00:44:06;;;;;;;3.75;2.17;;;;;;;16.31;84.06;98423.38;4187519;28;20419;-72
2022/06/06 00:46:08;;;;;;;2.47;2.17;;;;;;;16.28;84.21;98430.56;4187733;28;20546;-73
2022/06/06 00:48:41;;;;;;;4.47;2.20;;;;;;;16.23;84.34;98436.63;4187915;28;20488;-72
2022/06/06 00:50:47;;;;;;;2.20;2.00;;;;;;;16.15;84.27;98424.75;4187886;28;20043;-72
2022/06/06 00:52:52;;;;;;;2.45;2.25;;;;;;;16.11;84.77;98426.78;4187350;28;20407;-72
2022/06/06 00:54:58;;;;;;;2.60;2.20;;;;;;;16.07;84.45;98437.22;4194875;27;20234;-72
2022/06/06 00:57:03;;;;;;;2.47;2.20;;;;;;;15.96;84.84;98423.34;4188195;28;20441;-72
2022/06/06 00:59:12;;;;;;;4.03;2.20;;;;;;;15.91;85.13;98428.63;4187503;28;20037;-72
2022/06/06 01:01:12;;;;;;;4.47;2.50;;;;;;;15.87;85.05;98430.63;4197164;28;20055;-72
2022/06/06 01:03:16;;;;;;;3.92;2.60;;;;;;;15.82;86.47;98429.09;4190905;28;20044;-72
2022/06/06 01:05:18;;;;;;;3.53;2.13;;;;;;;15.75;86.75;98436.75;4188794;27;20119;-72
2022/06/06 01:07:19;;;;;;;2.60;2.40;;;;;;;15.72;86.72;98436.38;4188352;28;20045;-72
2022/06/06 01:09:22;;;;;;;4.05;2.60;;;;;;;15.72;86.56;98441.13;4187384;28;20384;-72
2022/06/06 01:11:22;;;;;;;2.70;2.30;;;;;;;15.69;85.94;98441.97;4193148;28;20090;-72
2022/06/06 01:13:23;;;;;;;3.47;2.28;;;;;;;15.63;86.31;98449.19;4188878;28;20488;-72
2022/06/06 01:15:27;;;;;;;3.38;2.08;;;;;;;15.55;86.35;98447.66;4195166;28;20057;-72
2022/06/06 01:17:46;;;;;;;2.70;2.15;;;;;;;15.57;85.63;98448.03;4188119;28;20292;-72
2022/06/06 01:20:02;;;;;;;2.40;2.20;;;;;;;15.57;85.40;98453.63;4187089;28;20515;-72
2022/06/06 01:22:20;;;;;;;2.92;2.05;;;;;;;15.56;85.26;98455.63;4187815;28;20154;-72
2022/06/06 01:24:45;;;;;;;2.13;1.92;;;;;;;15.54;85.82;98460.78;4190274;28;20523;-72
2022/06/06 01:27:08;;;;;;;4.45;2.40;;;;;;;15.49;86.10;98450.09;4188124;28;20148;-72
2022/06/06 01:29:14;;;;;;;2.33;1.95;;;;;;;15.51;85.46;98444.09;4187309;28;20040;-72
2022/06/06 01:31:36;;;;;;;3.10;2.30;;;;;;;15.46;86.27;98448.91;4187740;28;20589;-72
2022/06/06 01:33:50;;;;;;;2.92;1.90;;;;;;;15.42;86.34;98442.59;4190867;28;20189;-72
2022/06/06 01:35:50;;;;;;;3.78;2.33;;;;;;;15.35;87.40;98444.63;4188315;28;20071;-72
2022/06/06 01:37:51;;;;;;;2.33;2.10;;;;;;;15.36;87.27;98438.66;4187734;28;20036;-72
2022/06/06 01:39:52;;;;;;;3.67;2.30;;;;;;;15.37;87.53;98442.22;4193340;28;20211;-72
2022/06/06 01:42:19;;;;;;;2.47;2.28;;;;;;;15.41;88.35;98437.44;4187538;28;20036;-72
2022/06/06 01:44:39;;;;;;;5.32;2.40;;;;;;;15.43;87.13;98430.22;4186200;28;20052;-72
2022/06/06 01:46:40;;;;;;;2.70;2.10;;;;;;;15.52;86.55;98434.53;4187276;28;20048;-72
2022/06/06 01:48:42;;;;;;;2.25;2.05;;;;;;;15.54;86.14;98430.13;4190987;28;20471;-72
2022/06/06 01:50:44;;;;;;;2.55;2.20;;;;;;;15.55;86.58;98431.69;4195198;27;20123;-73
2022/06/06 01:52:53;;;;;;;2.63;2.30;;;;;;;15.55;87.04;98436.50;4187509;28;20418;-72
2022/06/06 01:54:56;;;;;;;2.60;2.20;;;;;;;15.50;86.86;98429.38;4193113;28;20060;-72
2022/06/06 01:56:58;;;;;;;3.20;2.00;;;;;;;15.50;86.82;98437.75;4186949;28;20045;-72
2022/06/06 01:58:59;;;;;;;3.08;2.10;;;;;;;15.52;87.39;98437.31;4189972;28;20111;-72
2022/06/06 02:01:01;;;;;;;3.40;2.50;;;;;;;15.52;87.28;98435.31;4190406;27;20047;-72
2022/06/06 02:03:02;;;;;;;2.78;1.90;;;;;;;15.57;87.33;98440.47;4186825;28;20456;-72
2022/06/06 02:05:02;;;;;;;2.55;2.00;;;;;;;15.58;86.73;98430.09;4193004;28;20036;-72
2022/06/06 02:07:03;;;;;;;3.90;2.20;;;;;;;15.55;87.77;98434.50;4186939;28;20039;-72
2022/06/06 02:09:03;;;;;;;2.30;2.10;;;;;;;15.54;87.28;98444.06;4190703;28;20119;-72
2022/06/06 02:11:04;;;;;;;3.20;2.22;;;;;;;15.52;87.50;98438.13;4187294;28;20458;-72
2022/06/06 02:13:05;;;;;;;2.72;2.40;;;;;;;15.49;87.55;98440.94;4193330;28;20491;-72
2022/06/06 02:15:08;;;;;;;3.83;2.90;;;;;;;15.43;87.57;98437.81;4187204;28;20406;-72
2022/06/06 02:17:08;;;;;;;2.80;2.10;;;;;;;15.41;87.94;98438.22;4186896;28;20044;-72
2022/06/06 02:19:11;;;;;;;3.67;2.17;;;;;;;15.46;87.38;98439.75;4192291;28;20498;-72
2022/06/06 02:21:11;;;;;;;2.40;2.17;;;;;;;15.46;87.33;98434.19;4186894;28;20085;-72
2022/06/06 02:23:12;;;;;;;3.45;2.55;;;;;;;15.46;87.54;98445.34;4193074;28;20622;-72
2022/06/06 02:25:14;;;;;;;5.88;2.60;;;;;;;15.42;88.14;98445.38;4186619;28;20087;-72
2022/06/06 02:27:15;;;;;;;2.70;2.38;;;;;;;15.41;88.08;98445.78;4187043;28;20036;-72
2022/06/06 02:29:15;;;;;;;3.15;2.42;;;;;;;15.39;88.00;98443.41;4185638;28;20040;-72
2022/06/06 02:31:15;;;;;;;2.55;2.33;;;;;;;15.39;88.33;98445.38;4186503;28;20037;-72
2022/06/06 02:33:16;;;;;;;2.97;2.15;;;;;;;15.36;87.77;98438.66;4186628;28;20043;-72
2022/06/06 02:35:21;;;;;;;2.80;2.17;;;;;;;15.36;88.29;98433.06;4188916;28;20483;-72
2022/06/06 02:37:21;;;;;;;3.60;2.88;;;;;;;15.37;88.02;98439.44;4191315;28;20048;-72
2022/06/06 02:39:21;;;;;;;2.55;2.35;;;;;;;15.37;87.28;98442.22;4186283;28;20055;-72
2022/06/06 02:41:24;;;;;;;2.60;2.30;;;;;;;15.37;87.25;98431.06;4186693;28;20202;-72
2022/06/06 02:43:25;;;;;;;3.90;2.25;;;;;;;15.38;87.65;98446.59;4186411;28;20045;-72
2022/06/06 02:45:25;;;;;;;2.53;2.15;;;;;;;15.37;86.84;98447.81;4186187;28;20463;-72
2022/06/06 02:47:26;;;;;;;2.60;2.20;;;;;;;15.36;86.43;98444.22;4186127;28;20410;-72
2022/06/06 02:49:26;;;;;;;3.42;2.33;;;;;;;15.35;86.25;98447.44;4186148;28;20431;-72
2022/06/06 02:51:27;;;;;;;3.80;2.20;;;;;;;15.32;86.44;98449.03;4188307;28;20052;-72
2022/06/06 02:53:28;;;;;;;3.40;2.10;;;;;;;15.29;86.49;98449.84;4187725;28;20147;-73
2022/06/06 02:55:31;;;;;;;4.45;2.60;;;;;;;15.25;86.37;98462.25;4185613;28;20044;-73
2022/06/06 02:57:35;;;;;;;4.85;2.15;;;;;;;15.22;87.08;98451.91;4192692;28;20380;-72
2022/06/06 02:59:37;;;;;;;2.70;2.30;;;;;;;15.17;87.11;98456.72;4185797;28;20583;-72
2022/06/06 03:01:38;;;;;;;5.63;2.58;;;;;;;15.12;86.55;98450.78;4186250;28;20041;-72
2022/06/06 03:03:39;;;;;;;5.88;2.67;;;;;;;15.06;87.14;98453.22;4186145;28;20386;-72
2022/06/06 03:06:09;;;;;;;3.33;2.30;;;;;;;15.02;87.30;98451.66;4187414;28;20139;-73
2022/06/06 03:08:40;;;;;;;5.38;2.85;;;;;;;14.93;87.31;98448.53;4186023;28;20423;-73
2022/06/06 03:11:01;;;;;;;5.55;3.05;;;;;;;14.80;88.15;98459.34;4186122;28;20506;-73
2022/06/06 03:13:46;;;;;;;3.00;2.45;;;;;;;14.65;88.81;98455.84;4191945;28;20037;-73
2022/06/06 03:21:06;;;;;;;5.57;2.75;;;;;;;14.34;90.64;98463.13;4185805;28;20051;-72
2022/06/06 03:23:36;;;;;;;3.60;2.80;;;;;;;14.35;88.94;98461.91;4185941;28;20054;-72
2022/06/06 03:26:00;;;;;;;2.80;2.40;;;;;;;14.34;90.02;98463.13;4185503;28;20068;-72
2022/06/06 03:28:14;;;;;;;4.53;2.53;;;;;;;14.35;92.96;98461.91;4185274;28;20700;-73
2022/06/06 03:30:22;;;;;;;2.60;2.20;;;;;;;14.43;91.77;98473.81;4184824;28;20080;-72
2022/06/06 03:32:41;;;;;;;3.35;2.33;;;;;;;14.51;92.34;98465.06;4186109;28;20036;-72
2022/06/06 03:35:01;;;;;;;2.45;2.05;;;;;;;14.60;91.33;98467.41;4185214;28;20072;-72
2022/06/06 03:37:10;;;;;;;3.28;2.33;;;;;;;14.65;90.28;98463.44;4185881;28;20480;-72
2022/06/06 03:39:16;;;;;;;3.05;2.08;;;;;;;14.71;89.95;98475.69;4185366;28;20377;-72
2022/06/06 03:41:26;;;;;;;5.10;2.70;;;;;;;14.75;90.83;98485.63;4191021;28;20634;-72
2022/06/06 03:43:42;;;;;;;3.00;2.70;;;;;;;14.80;91.71;98487.97;4185996;28;20363;-73
2022/06/06 03:45:56;;;;;;;4.80;2.70;;;;;;;14.83;91.15;98487.19;4185539;28;20187;-72
2022/06/06 03:48:11;;;;;;;2.63;2.30;;;;;;;14.89;90.70;98487.53;4185842;28;20048;-73
2022/06/06 03:50:42;;;;;;;4.15;3.00;;;;;;;14.93;91.19;98484.75;4184539;28;20124;-72
2022/06/06 03:53:08;;;;;;;3.83;2.33;;;;;;;14.98;90.18;98482.34;4185325;28;20040;-72
2022/06/06 03:55:32;;;;;;;4.72;2.50;;;;;;;15.08;90.60;98478.69;4185295;28;20053;-73
2022/06/06 03:57:35;;;;;;;2.58;2.38;;;;;;;15.14;89.08;98484.59;4185687;28;20439;-73
2022/06/06 03:59:37;;;;;;;2.38;2.17;;;;;;;15.20;89.06;98488.53;4185177;28;20098;-72
2022/06/06 04:01:40;;;;;;;5.20;2.70;;;;;;;15.24;89.01;98491.31;4189991;28;20430;-72
2022/06/06 04:03:44;;;;;;;;;;;;;;;15.29;89.33;98494.44;4186120;28;20063;-72
2022/06/06 04:05:45;;;;;;;3.22;2.40;;;;;;;15.33;88.85;98486.06;4185296;28;20039;-72
2022/06/06 04:07:45;;;;;;;2.95;2.60;;;;;;;15.36;88.49;98493.59;4188564;28;20037;-72
2022/06/06 04:09:47;;;;;;;2.33;2.13;;;;;;;15.38;88.00;98485.63;4193758;28;20056;-72
2022/06/06 04:11:54;;;;;;;2.75;2.40;;;;;;;15.46;87.71;98504.66;4190797;28;20102;-72
2022/06/06 04:14:24;;;;;;;3.22;2.42;;;;;;;15.52;87.50;98502.25;4188880;28;20411;-73
2022/06/06 04:16:42;;;;;;;2.60;2.13;;;;;;;15.63;85.93;98508.56;4188573;28;20295;-72
2022/06/06 04:19:03;;;;;;;3.47;2.50;;;;;;;15.73;86.17;98507.69;4187240;28;20052;-73
2022/06/06 04:21:11;;;;;;;3.30;2.38;;;;;;;15.80;85.56;98514.38;4192509;28;20515;-73
2022/06/06 04:23:53;;;;;;;3.75;2.47;;;;;;;15.91;85.24;98513.09;4192782;28;20087;-73
2022/06/06 04:26:10;;;;;;;2.92;2.10;;;;;;;16.00;85.43;98509.84;4187194;28;20453;-73
2022/06/06 04:28:40;;;;;;;2.60;2.30;;;;;;;16.05;85.41;98512.16;4187628;28;20082;-73
2022/06/06 04:31:29;;;;;;;2.92;2.25;;;;;;;16.21;83.70;98517.19;4193512;28;20028;-72
2022/06/06 04:33:45;;;;;;;4.13;2.55;;;;;;;16.34;84.51;98509.09;4168208;28;20076;-72
2022/06/06 04:36:18;;;;;;;2.47;2.28;;;;;;;16.48;83.50;98511.72;4183644;28;20045;-72
2022/06/06 04:38:48;;;;;;;5.30;2.65;;;;;;;16.61;83.84;98498.00;4186863;28;20044;-73
2022/06/06 04:41:11;;;;;;;3.78;2.42;;;;;;;16.77;83.41;98501.78;4188974;28;20480;-73
2022/06/06 04:43:22;;;;;;;2.78;2.42;;;;;;;16.90;83.22;98509.63;4188299;28;20057;-72
2022/06/06 04:45:38;;;;;;;5.15;2.35;;;;;;;17.00;81.95;98508.69;4193003;28;20044;-73
2022/06/06 04:47:41;;;;;;;3.30;2.45;;;;;;;17.10;82.17;98527.31;4187510;28;20041;-73
2022/06/06 04:49:42;;;;;;;3.15;2.80;;;;;;;17.16;81.48;98522.84;4187814;28;20036;-73
2022/06/06 04:51:45;;;;;;;3.13;2.45;;;;;;;17.24;81.11;98534.72;4188464;27;20102;-73
2022/06/06 04:53:55;;;;;;;4.00;2.67;;;;;;;17.18;81.92;98539.97;4191968;28;20471;-73
2022/06/06 04:55:56;;;;;;;5.32;2.88;;;;;;;17.12;80.93;98522.88;4188760;28;20820;-73
2022/06/06 04:58:00;;;;;;;3.97;2.60;;;;;;;17.10;81.49;98533.69;4188165;28;20499;-72
2022/06/06 05:00:03;;;;;;;3.38;3.08;;;;;;;17.04;81.85;98535.38;4186781;28;20472;-73
2022/06/06 05:02:05;;;;;;;3.08;2.72;;;;;;;16.98;81.14;98530.69;4189011;28;20471;-72
2022/06/06 05:04:05;;;;;;;3.72;3.25;;;;;;;16.96;82.19;98538.69;4195213;28;20099;-73
2022/06/06 05:06:27;;;;;;;3.35;2.65;;;;;;;16.91;82.19;98527.97;4189106;27;20133;-73
2022/06/06 05:08:56;;;;;;;3.97;2.58;;;;;;;16.92;82.23;98540.75;4187902;28;20134;-72
2022/06/06 05:11:26;;;;;;;3.17;2.70;;;;;;;16.79;82.56;98538.47;4170103;28;20336;-73
2022/06/06 05:13:26;;;;;;;3.20;2.67;;;;;;;16.94;82.07;98543.91;4175301;28;20053;-73
2022/06/06 05:15:45;;;;;;;2.45;2.25;;;;;;;17.08;82.32;98538.13;4191255;28;20064;-73
2022/06/06 05:18:12;;;;;;;3.20;2.75;;;;;;;17.21;80.94;98533.56;4186277;28;20378;-73
2022/06/06 05:20:24;;;;;;;5.07;3.33;;;;;;;17.37;80.41;98536.50;4186377;28;20063;-73
2022/06/06 05:22:28;;;;;;;3.15;2.85;;;;;;;17.50;79.65;98538.72;4187921;28;20036;-73
2022/06/06 05:24:47;;;;;;;4.03;3.30;;;;;;;17.55;78.43;98546.66;4186208;28;20055;-73
2022/06/06 05:27:10;;;;;;;4.20;3.10;;;;;;;17.62;77.63;98550.09;4187984;28;20040;-73
2022/06/06 05:29:25;;;;;;;;;;;;;;;17.71;78.00;98538.44;4187630;28;20044;-73
2022/06/06 05:31:57;;;;;;;3.95;3.42;;;;;;;17.77;77.15;98536.72;4191146;27;19916;-73
2022/06/06 05:34:05;;;;;;;4.22;2.92;;;;;;;17.80;76.87;98543.47;4191626;28;20068;-73
2022/06/06 05:36:53;;;;;;;5.40;3.33;;;;;;;17.83;76.46;98542.63;4187743;28;20119;-73
2022/06/06 05:39:08;;;;;;;3.70;3.30;;;;;;;17.86;77.15;98553.75;4192975;28;20378;-73
2022/06/06 05:41:35;;;;;;;5.18;3.25;;;;;;;17.94;75.98;98558.00;4187806;28;20036;-73
2022/06/06 05:43:50;;;;;;;4.53;3.42;;;;;;;17.98;76.63;98557.19;4187690;28;20499;-73
2022/06/06 05:46:22;;;;;;;3.55;2.75;;;;;;;17.99;74.55;98541.97;4187076;28;20045;-73
2022/06/06 05:49:03;;;;;;;4.05;2.83;;;;;;;18.03;74.67;98549.06;4178775;28;20036;-73
2022/06/06 05:51:26;;;;;;;3.90;2.90;;;;;;;18.10;75.01;98550.94;4179545;28;20060;-73
2022/06/06 05:53:33;;;;;;;4.25;3.58;;;;;;;18.14;75.29;98560.09;4183108;28;20135;-73
2022/06/06 05:56:01;;;;;;;3.83;3.25;;;;;;;18.19;74.47;98551.97;4100799;28;20062;-72
2022/06/06 05:58:30;;;;;;;4.45;3.15;;;;;;;18.24;74.53;98547.91;4212745;27;20048;-73
2022/06/06 06:00:56;;;;;;;4.65;3.15;;;;;;;18.32;72.47;98545.78;4185755;28;20423;-73
2022/06/06 06:03:16;;;;;;;3.78;3.00;;;;;;;18.30;72.47;98551.81;4185890;28;20738;-73
2022/06/06 06:05:55;;;;;;;4.07;3.13;;;;;;;18.33;73.11;98552.94;4183077;27;20547;-73
2022/06/06 06:08:31;;;;;;;3.65;2.70;;;;;;;18.34;71.60;98562.94;4186242;28;20041;-73
2022/06/06 06:10:34;;;;;;;3.22;2.47;;;;;;;18.31;72.70;98558.97;4186458;28;20048;-73
2022/06/06 06:13:08;;;;;;;3.20;2.90;;;;;;;18.34;72.05;98571.31;4189512;28;20040;-73
2022/06/06 06:15:10;;;;;;;;;;;;;;;18.36;72.01;98569.69;4186061;28;20067;-73
2022/06/06 06:17:11;;;;;;;3.43;2.40;;;;;;;18.39;71.67;98566.03;4188784;28;19913;-73
2022/06/06 06:19:19;;;;;;;4.05;3.15;;;;;;;18.39;71.97;98565.25;4186735;27;20270;-73
2022/06/06 06:21:33;;;;;;;4.85;2.88;;;;;;;18.47;71.51;98567.50;4187602;28;20047;-73
2022/06/06 06:23:37;;;;;;;3.75;3.05;;;;;;;18.52;71.49;98571.78;4182925;28;20524;-73
2022/06/06 06:25:40;;;;;;;4.38;2.83;;;;;;;18.67;71.98;98575.13;4176871;28;20412;-73
2022/06/06 06:27:43;;;;;;;2.88;2.58;;;;;;;18.81;71.22;98569.25;4181551;28;20049;-73
2022/06/06 06:29:43;;;;;;;3.83;2.80;;;;;;;18.85;70.95;98564.34;4178197;28;20047;-73
2022/06/06 06:32:13;;;;;;;4.43;2.95;;;;;;;18.99;71.48;98557.69;4181143;28;20486;-73
2022/06/06 06:34:13;;;;;;;4.00;3.58;;;;;;;19.03;70.99;98567.59;4183446;28;20286;-73
2022/06/06 06:36:26;;;;;;;3.20;2.83;;;;;;;19.06;70.34;98551.94;4186100;28;20031;-73
2022/06/06 06:38:38;;;;;;;;;;;;;;;18.91;69.74;98561.84;4183084;28;20044;-73
2022/06/06 06:41:00;;;;;;;3.70;2.55;;;;;;;18.99;69.39;98566.09;4183913;28;20018;-73
2022/06/06 06:43:03;;;;;;;3.60;2.97;;;;;;;19.08;68.87;98555.88;4182472;28;20060;-73
2022/06/06 06:45:28;;;;;;;3.70;2.53;;;;;;;19.05;68.84;98559.53;4184217;28;20499;-73
2022/06/06 06:47:34;;;;;;;5.22;2.25;;;;;;;19.09;67.85;98553.84;4184050;28;20049;-73
2022/06/06 06:49:39;;;;;;;6.82;2.47;;;;;;;19.08;66.59;98547.44;4189729;28;20418;-73
2022/06/06 06:52:06;;;;;;;4.50;2.65;;;;;;;19.16;66.74;98553.69;4189068;27;20381;-73
2022/06/06 06:54:27;;;;;;;6.13;2.50;;;;;;;19.19;65.26;98558.44;4186086;28;20051;-73
2022/06/06 06:56:46;;;;;;;3.03;2.47;;;;;;;19.21;66.53;98541.19;4192046;28;20056;-73
2022/06/06 06:58:57;;;;;;;4.30;2.65;;;;;;;19.28;66.49;98544.63;4185566;28;20033;-73
2022/06/06 07:01:03;;;;;;;2.50;2.30;;;;;;;19.32;66.19;98558.56;4189079;28;20384;-73
2022/06/06 07:08:35;;;;;;;3.15;2.65;;;;;;;19.43;65.92;98547.88;4189558;28;20059;-73
2022/06/06 07:10:59;;;;;;;5.13;2.63;;;;;;;19.49;63.03;98557.38;4188657;28;20063;-73
2022/06/06 07:13:22;;;;;;;2.67;2.28;;;;;;;19.50;64.54;98550.53;4189367;27;20151;-73
2022/06/06 07:15:50;;;;;;;4.07;2.35;;;;;;;19.62;63.70;98547.06;4193076;27;20135;-73
2022/06/06 07:17:58;;;;;;;3.30;1.98;;;;;;;19.67;62.54;98554.16;4188760;28;20076;-73
2022/06/06 07:20:05;;;;;;;2.47;2.17;;;;;;;19.72;62.20;98553.66;4185375;28;20354;-73
2022/06/06 07:22:06;;;;;;;3.22;2.10;;;;;;;19.84;61.98;98546.53;4185829;28;20078;-73
2022/06/06 07:24:10;;;;;;;3.97;2.10;;;;;;;19.90;61.18;98561.63;4185721;28;20379;-73
2022/06/06 07:26:11;;;;;;;2.80;2.10;;;;;;;19.91;61.48;98552.78;4184870;28;20483;-73
2022/06/06 07:28:21;;;;;;;3.03;2.08;;;;;;;19.96;60.08;98559.88;4192649;27;20032;-73
2022/06/06 07:30:23;;;;;;;2.58;2.17;;;;;;;20.02;60.46;98563.72;4185776;28;20178;-73
2022/06/06 07:32:43;;;;;;;3.07;2.27;;;;;;;20.12;59.78;98559.09;4186018;28;20064;-73
2022/06/06 07:35:20;;;;;;;2.80;2.30;;;;;;;20.20;59.28;98561.28;4186127;28;20033;-73
2022/06/06 07:37:29;;;;;;;3.47;2.25;;;;;;;20.29;58.83;98565.47;4185790;28;20040;-73
2022/06/06 07:39:45;;;;;;;3.05;2.40;;;;;;;20.29;58.09;98563.47;4188587;28;20049;-73
2022/06/06 07:42:04;;;;;;;3.53;2.35;;;;;;;20.21;58.11;98567.69;4185126;28;20457;-73
2022/06/06 07:44:34;;;;;;;6.68;2.50;;;;;;;20.24;58.28;98569.59;4185421;28;20036;-73
2022/06/06 07:46:53;;;;;;;2.75;2.00;;;;;;;20.32;59.33;98576.63;4185341;28;20076;-73
2022/06/06 07:49:08;;;;;;;3.95;2.47;;;;;;;20.42;58.61;98572.72;4184037;28;20083;-73
2022/06/06 07:51:18;;;;;;;3.03;2.28;;;;;;;20.50;58.17;98572.56;4184686;28;20472;-73
2022/06/06 07:53:47;;;;;;;3.78;2.38;;;;;;;20.52;58.23;98573.72;4191062;27;20052;-73
2022/06/06 07:56:15;;;;;;;4.63;2.40;;;;;;;20.57;59.34;98572.38;4180070;28;20396;-73
2022/06/06 07:58:20;;;;;;;3.30;2.53;;;;;;;20.52;57.66;98573.72;4186075;28;20114;-73
2022/06/06 08:00:25;;;;;;;4.13;2.10;;;;;;;20.36;58.23;98568.91;4185279;28;20440;-73
2022/06/06 08:02:49;;;;;;;3.33;2.38;;;;;;;20.30;58.72;98558.63;4185136;28;20036;-73
2022/06/06 08:05:01;;;;;;;4.18;2.35;;;;;;;20.45;59.30;98563.47;4191363;28;20051;-73
2022/06/06 08:07:38;;;;;;;3.40;2.45;;;;;;;20.62;58.82;98564.22;4184823;28;20053;-73
2022/06/06 08:09:46;;;;;;;4.32;2.03;;;;;;;20.74;57.72;98571.09;4188752;28;20036;-73
2022/06/06 08:11:58;;;;;;;2.78;2.05;;;;;;;20.67;56.67;98574.09;4185784;28;20041;-73
2022/06/06 08:14:29;;;;;;;2.97;2.50;;;;;;;20.56;57.59;98568.78;4187128;28;20040;-73
2022/06/06 08:16:39;;;;;;;3.08;2.00;;;;;;;20.49;58.43;98571.78;4186124;28;20471;-73
2022/06/06 08:19:19;;;;;;;2.90;1.90;;;;;;;20.39;57.19;98568.00;4185000;28;20484;-73
2022/06/06 08:21:32;;;;;;;2.85;2.00;;;;;;;20.39;56.94;98567.22;4187953;28;20083;-73
2022/06/06 08:23:34;;;;;;;3.22;1.90;;;;;;;20.48;57.55;98571.00;4189888;28;20088;-73
2022/06/06 08:25:37;;;;;;;4.18;2.30;;;;;;;20.60;57.85;98574.28;4185725;28;20266;-73
2022/06/06 08:27:44;;;;;;;3.88;2.17;;;;;;;20.56;56.67;98573.63;4185313;28;20037;-73
2022/06/06 08:29:45;;;;;;;2.38;2.17;;;;;;;20.42;57.27;98574.75;4185318;28;20044;-74
2022/06/06 08:31:45;;;;;;;5.07;2.35;;;;;;;20.39;57.85;98581.25;4187559;28;20079;-74
2022/06/06 08:33:47;;;;;;;4.40;2.40;;;;;;;20.28;58.14;98569.53;4188071;28;20036;-73
2022/06/06 08:36:07;;;;;;;4.18;2.40;;;;;;;20.22;58.28;98576.91;4191027;27;20072;-73
2022/06/06 08:38:33;;;;;;;4.55;2.00;;;;;;;20.41;58.42;98570.38;4190745;28;20076;-73
2022/06/06 08:40:46;;;;;;;4.47;2.30;;;;;;;20.53;58.48;98566.09;4184684;28;20040;-73
2022/06/06 08:42:52;;;;;;;2.50;2.20;;;;;;;20.51;59.29;98571.34;4185714;28;20638;-73
2022/06/06 08:44:59;;;;;;;4.05;2.30;;;;;;;20.43;57.07;98573.50;4185239;28;20029;-73
2022/06/06 08:46:59;;;;;;;4.10;2.33;;;;;;;20.40;57.57;98580.03;4185270;28;20460;-73
2022/06/06 08:49:02;;;;;;;4.45;2.40;;;;;;;20.42;58.86;98569.91;4184462;28;20063;-73
2022/06/06 08:51:28;;;;;;;3.15;2.30;;;;;;;20.57;57.30;98566.75;4185238;28;20166;-74
2022/06/06 08:54:02;;;;;;;3.50;2.25;;;;;;;20.76;58.15;98571.44;4192997;28;20098;-73
2022/06/06 08:56:18;;;;;;;3.40;2.40;;;;;;;20.68;57.19;98565.22;4188963;28;20531;-73
2022/06/06 08:58:42;;;;;;;4.32;2.03;;;;;;;20.72;58.01;98571.53;4187867;27;20032;-73
2022/06/06 09:00:55;;;;;;;4.20;2.40;;;;;;;20.82;57.99;98574.50;4190775;28;20115;-73
2022/06/06 09:03:01;;;;;;;5.00;2.30;;;;;;;20.76;55.79;98579.88;4190060;28;20473;-73
2022/06/06 09:05:04;;;;;;;5.07;2.08;;;;;;;20.85;55.60;98577.22;4188379;28;20606;-74
2022/06/06 09:07:42;;;;;;;5.38;2.15;;;;;;;20.94;55.52;98579.38;4188409;28;20040;-73
2022/06/06 09:10:03;;;;;;;2.65;1.90;;;;;;;21.04;55.23;98578.28;4187303;28;20484;-74
2022/06/06 09:12:52;;;;;;;3.60;2.30;;;;;;;21.12;54.97;98571.22;4198766;28;20430;-73
2022/06/06 09:15:08;;;;;;;2.92;2.00;;;;;;;21.35;52.91;98575.78;4186706;28;20048;-73
2022/06/06 09:17:26;;;;;;;2.80;2.00;;;;;;;21.48;53.00;98570.16;4187905;28;20546;-73
2022/06/06 09:19:42;;;;;;;2.30;2.10;;;;;;;21.42;53.55;98560.69;4187468;28;20139;-73
2022/06/06 09:21:45;;;;;;;3.63;2.30;;;;;;;21.40;52.44;98569.59;4190956;28;20040;-73
2022/06/06 09:24:00;;;;;;;2.53;2.10;;;;;;;21.33;53.50;98571.81;4188467;28;20037;-73
2022/06/06 09:26:09;;;;;;;3.70;1.98;;;;;;;21.23;54.27;98566.06;4182269;28;20507;-74
2022/06/06 09:28:32;;;;;;;3.15;2.17;;;;;;;21.23;54.43;98563.25;4185663;28;20691;-73
2022/06/06 09:30:58;;;;;;;;;;;;;;;21.18;53.28;98563.00;4185045;28;20374;-73
2022/06/06 09:33:33;;;;;;;2.72;2.20;;;;;;;21.22;54.92;98558.06;4188807;28;19924;-73
2022/06/06 09:35:49;;;;;;;3.00;2.30;;;;;;;21.34;56.02;98554.50;4185895;28;20492;-74
2022/06/06 09:37:49;;;;;;;2.72;2.10;;;;;;;21.33;55.39;98558.53;4189260;28;20076;-73
2022/06/06 09:39:56;;;;;;;2.45;2.15;;;;;;;21.24;54.20;98549.94;4184867;28;20052;-73
2022/06/06 09:42:19;;;;;;;2.97;2.15;;;;;;;21.11;55.25;98549.16;4190593;27;20097;-73
2022/06/06 09:44:31;;;;;;;2.67;2.47;;;;;;;21.02;55.38;98558.25;4185858;28;20048;-73
2022/06/06 09:46:37;;;;;;;3.78;2.42;;;;;;;21.08;56.11;98558.47;4190845;28;20491;-73
2022/06/06 09:49:15;;;;;;;4.00;2.50;;;;;;;21.12;55.79;98554.34;4188507;28;20133;-74
2022/06/06 09:51:49;;;;;;;2.83;2.50;;;;;;;21.26;56.26;98562.34;4194248;28;20510;-74
2022/06/06 10:00:20;;;;;;;2.65;2.10;;;;;;;21.33;54.01;98557.75;4188481;28;20051;-73
2022/06/06 10:02:39;;;;;;;2.67;2.22;;;;;;;21.30;53.35;98549.00;4191419;28;20049;-73
2022/06/06 10:05:10;;;;;;;2.20;1.98;;;;;;;21.29;53.50;98552.25;4187142;28;20047;-74
2022/06/06 10:07:25;;;;;;;3.20;2.22;;;;;;;21.20;54.69;98552.88;4187741;28;20064;-74
2022/06/06 10:09:51;;;;;;;2.35;2.03;;;;;;;21.11;53.40;98537.91;4187119;28;20384;-74
2022/06/06 10:12:19;;;;;;;3.25;2.28;;;;;;;20.97;53.58;98541.94;4193165;28;20045;-74
2022/06/06 10:14:45;;;;;;;3.13;2.40;;;;;;;20.83;54.60;98539.53;4187012;28;20036;-74
2022/06/06 10:17:11;;;;;;;3.55;2.20;;;;;;;20.73;53.52;98542.19;4187420;28;20123;-73
2022/06/06 10:19:38;;;;;;;3.55;2.28;;;;;;;20.66;55.51;98545.19;4192060;27;20377;-73
2022/06/06 10:21:54;;;;;;;2.72;2.42;;;;;;;20.60;56.31;98534.94;4191255;28;20123;-73
2022/06/06 10:23:57;;;;;;;3.63;2.33;;;;;;;20.58;56.29;98540.22;4190136;28;20830;-73
2022/06/06 10:26:09;;;;;;;2.60;2.35;;;;;;;20.49;57.25;98526.81;4187974;27;20040;-74
2022/06/06 10:28:22;;;;;;;2.75;2.38;;;;;;;20.45;57.42;98528.94;4187841;28;20045;-74
2022/06/06 10:30:49;;;;;;;5.03;2.25;;;;;;;20.38;57.81;98531.91;4188581;28;20049;-73
2022/06/06 10:33:10;;;;;;;2.25;2.05;;;;;;;20.31;57.98;98532.91;4187017;28;20401;-74
2022/06/06 10:35:36;;;;;;;3.17;2.50;;;;;;;20.14;59.49;98540.56;4193689;28;20055;-74
2022/06/06 10:37:42;;;;;;;4.60;2.70;;;;;;;20.01;60.75;98536.88;4187651;28;20037;-73
2022/06/06 10:40:16;;;;;;;4.13;2.95;;;;;;;19.83;62.12;98540.13;4188849;28;20048;-73
2022/06/06 10:42:35;;;;;;;;;;;;;;;19.71;64.26;98554.09;4188604;28;20102;-74
2022/06/06 10:45:12;;;;;;;3.90;2.67;;;;;;;19.62;65.51;98549.09;4185833;28;19954;-74
2022/06/06 10:47:23;;;;;;;3.22;2.70;;;;;;;19.53;66.91;98543.28;4191614;28;20605;-74